Time;durP1;ratioP1;P1;durP2;ratioP2;P2;SDS_P1;SDS_P2;PMS_P1;PMS_P2;Temp;Humidity;BMP_temperature;BMP_pressure;BME280_temperature;BME280_humidity;BME280_pressure;Samples;Min_cycle;Max_cycle;Signal;HPM_P1;HPM_P2
2022/06/24 04:02:18;;;;;;;15.13;6.85;;;17.00;99.90;;;;;;5158176;22;20105;-73
2022/06/24 04:04:44;;;;;;;16.27;7.85;;;17.00;99.90;;;;;;5016157;28;20042;-73
2022/06/24 04:07:09;;;;;;;10.10;5.90;;;17.00;99.90;;;;;;5014401;28;20035;-73
2022/06/24 04:09:35;;;;;;;16.67;8.43;;;16.90;99.90;;;;;;5016118;28;20065;-73
2022/06/24 04:12:00;;;;;;;17.67;9.20;;;17.10;99.90;;;;;;5014942;28;20547;-73
2022/06/24 04:17:10;;;;;;;19.65;9.60;;;16.90;99.90;;;;;;5015753;28;20042;-74
2022/06/24 04:19:36;;;;;;;14.25;8.00;;;16.90;99.90;;;;;;5015771;28;20034;-75
2022/06/24 04:22:05;;;;;;;22.85;10.05;;;16.90;99.90;;;;;;5016012;28;20105;-76
2022/06/24 04:24:31;;;;;;;14.88;9.18;;;16.90;99.90;;;;;;5015768;28;20035;-76
2022/06/24 04:26:56;;;;;;;17.27;8.57;;;16.90;99.90;;;;;;5015547;28;20451;-76
2022/06/24 04:29:22;;;;;;;25.67;12.63;;;16.90;99.90;;;;;;5015970;28;20117;-76
2022/06/24 04:31:47;;;;;;;19.70;10.43;;;16.90;99.90;;;;;;5015386;28;20038;-76
2022/06/24 04:34:13;;;;;;;21.83;10.25;;;16.90;99.90;;;;;;5015730;28;20026;-76
2022/06/24 04:36:38;;;;;;;16.67;7.63;;;16.90;99.90;;;;;;5013871;28;20420;-75
2022/06/24 04:39:04;;;;;;;16.88;7.97;;;16.90;99.90;;;;;;5014054;28;20503;-75
2022/06/24 04:41:29;;;;;;;20.42;9.27;;;16.90;99.90;;;;;;5015622;28;20038;-75
2022/06/24 04:43:55;;;;;;;27.77;11.70;;;16.90;99.90;;;;;;5016485;28;20035;-75
2022/06/24 04:46:21;;;;;;;30.90;13.88;;;16.90;99.90;;;;;;5014904;28;20443;-75
2022/06/24 04:48:46;;;;;;;18.65;8.63;;;16.90;99.90;;;;;;5015588;28;20072;-75
2022/06/24 04:51:12;;;;;;;18.23;8.35;;;17.00;99.90;;;;;;5015395;28;20093;-75
2022/06/24 04:53:38;;;;;;;21.45;12.27;;;17.00;99.90;;;;;;5014114;28;20042;-75
2022/06/24 04:56:04;;;;;;;25.75;13.10;;;17.00;99.90;;;;;;5015372;28;20085;-75
2022/06/24 04:58:29;;;;;;;28.05;12.80;;;17.00;99.90;;;;;;5016600;28;20531;-76
2022/06/24 05:00:55;;;;;;;27.05;13.07;;;17.10;99.90;;;;;;5014249;28;20034;-77
2022/06/24 05:03:20;;;;;;;19.40;8.93;;;17.10;99.90;;;;;;5016260;28;20109;-75
2022/06/24 05:05:46;;;;;;;26.70;13.38;;;17.10;99.90;;;;;;5015914;28;20448;-76
2022/06/24 05:08:11;;;;;;;21.17;9.95;;;17.10;99.90;;;;;;5015752;28;20036;-77
2022/06/24 05:10:37;;;;;;;21.15;11.82;;;17.20;99.90;;;;;;5016863;28;20042;-76
2022/06/24 05:13:02;;;;;;;16.70;7.93;;;17.30;99.90;;;;;;5019232;28;20492;-76
2022/06/24 05:15:28;;;;;;;16.42;9.07;;;17.30;99.90;;;;;;5014027;28;20392;-77
2022/06/24 05:17:54;;;;;;;14.05;6.38;;;17.40;99.90;;;;;;5015607;28;20045;-77
2022/06/24 05:20:19;;;;;;;35.65;13.27;;;17.50;99.90;;;;;;5015229;28;20372;-77
2022/06/24 05:22:45;;;;;;;14.27;7.75;;;17.50;99.90;;;;;;5016823;28;20121;-78
2022/06/24 05:25:10;;;;;;;30.75;13.30;;;17.60;99.90;;;;;;5016660;28;20037;-78
2022/06/24 05:27:36;;;;;;;13.70;7.60;;;17.60;99.90;;;;;;5013785;28;20042;-77
2022/06/24 05:30:03;;;;;;;19.65;9.65;;;17.70;99.90;;;;;;5014937;28;20038;-78
2022/06/24 05:32:28;;;;;;;15.85;9.05;;;17.80;99.90;;;;;;5014403;28;20475;-77
2022/06/24 05:34:54;;;;;;;15.90;6.80;;;17.80;99.90;;;;;;5014847;28;20039;-77
2022/06/24 05:37:19;;;;;;;13.65;7.85;;;17.90;99.90;;;;;;5014640;28;20046;-77
2022/06/24 05:39:45;;;;;;;21.08;7.85;;;17.90;99.90;;;;;;5014828;28;20476;-77
2022/06/24 05:42:10;;;;;;;13.73;5.82;;;18.00;99.90;;;;;;5014835;28;20034;-77
2022/06/24 05:44:36;;;;;;;13.88;7.65;;;18.00;99.90;;;;;;5013105;28;20030;-77
2022/06/24 05:47:01;;;;;;;13.35;6.47;;;18.10;99.90;;;;;;5014633;28;20045;-77
2022/06/24 05:49:27;;;;;;;19.35;8.77;;;18.10;99.90;;;;;;5015024;28;20030;-77
2022/06/24 05:51:52;;;;;;;19.90;10.63;;;18.20;99.90;;;;;;5016152;28;20062;-77
2022/06/24 05:57:02;;;;;;;13.40;7.28;;;18.30;99.90;;;;;;5016840;28;20026;-77
2022/06/24 05:59:28;;;;;;;13.10;6.05;;;18.50;99.90;;;;;;5015125;28;20034;-77
2022/06/24 06:01:54;;;;;;;11.95;5.90;;;18.50;99.90;;;;;;5015880;28;20049;-77
2022/06/24 06:04:19;;;;;;;17.25;7.78;;;18.40;99.90;;;;;;5016208;28;20030;-77
2022/06/24 06:06:46;;;;;;;15.30;6.68;;;18.40;99.90;;;;;;5016448;28;20117;-77
2022/06/24 06:09:11;;;;;;;16.13;7.97;;;18.50;99.90;;;;;;5015002;28;20026;-77
2022/06/24 06:11:37;;;;;;;12.38;5.93;;;18.60;99.90;;;;;;5016546;28;20384;-77
2022/06/24 06:14:02;;;;;;;13.73;6.43;;;18.60;99.90;;;;;;5016419;28;20046;-77
2022/06/24 06:16:28;;;;;;;13.32;6.32;;;18.60;99.90;;;;;;5016407;28;20054;-78
2022/06/24 06:18:54;;;;;;;8.80;4.90;;;18.50;99.90;;;;;;5016770;28;20419;-78
2022/06/24 06:21:20;;;;;;;14.20;5.90;;;18.60;99.90;;;;;;5016376;28;20042;-77
2022/06/24 06:23:46;;;;;;;11.07;5.43;;;18.70;99.90;;;;;;5016595;28;20058;-78
2022/06/24 06:26:12;;;;;;;11.45;5.85;;;18.70;99.90;;;;;;5015828;28;20097;-77
2022/06/24 06:28:38;;;;;;;12.63;5.40;;;18.80;99.90;;;;;;5015604;28;20113;-77
2022/06/24 06:31:04;;;;;;;11.77;6.88;;;18.90;99.90;;;;;;5015092;28;20492;-77
2022/06/24 06:33:33;;;;;;;10.55;5.40;;;19.00;99.90;;;;;;5015444;28;20053;-77
2022/06/24 06:36:09;;;;;;;12.25;6.28;;;19.10;99.90;;;;;;5017155;28;20576;-77
2022/06/24 06:38:36;;;;;;;11.65;5.30;;;19.30;99.90;;;;;;5018867;28;20034;-77
2022/06/24 06:41:02;;;;;;;12.23;5.63;;;19.40;99.90;;;;;;5018244;28;20540;-77
2022/06/24 06:43:28;;;;;;;13.65;6.13;;;19.60;99.90;;;;;;5017707;28;20050;-77
2022/06/24 06:45:54;;;;;;;9.95;5.78;;;19.70;99.90;;;;;;5016820;28;20065;-75
2022/06/24 06:48:20;;;;;;;12.57;6.88;;;19.80;99.90;;;;;;5015967;28;20112;-76
2022/06/24 06:50:46;;;;;;;8.38;4.85;;;19.90;99.90;;;;;;5015773;28;20030;-76
2022/06/24 06:53:11;;;;;;;9.23;4.93;;;19.90;99.90;;;;;;5017502;28;20162;-76
2022/06/24 06:55:37;;;;;;;12.73;4.80;;;20.00;99.90;;;;;;5017204;28;20114;-76
2022/06/24 06:58:03;;;;;;;9.07;4.55;;;20.10;99.90;;;;;;5017251;28;20084;-76
2022/06/24 07:00:28;;;;;;;11.15;5.07;;;20.10;99.90;;;;;;5015296;28;20080;-76
2022/06/24 07:02:54;;;;;;;12.02;4.53;;;20.20;99.90;;;;;;5017362;28;20043;-76
2022/06/24 07:05:19;;;;;;;10.00;4.20;;;20.40;99.90;;;;;;5016780;28;20041;-76
2022/06/24 07:07:45;;;;;;;9.90;4.35;;;20.60;99.90;;;;;;5016897;28;20042;-76
2022/06/24 07:10:11;;;;;;;9.55;4.20;;;21.00;99.90;;;;;;5016679;28;20022;-76
2022/06/24 07:12:36;;;;;;;8.48;3.63;;;21.30;99.90;;;;;;5017198;28;20124;-76
2022/06/24 07:15:02;;;;;;;9.05;4.00;;;21.50;99.90;;;;;;5017068;28;20030;-76
2022/06/24 07:17:28;;;;;;;10.90;3.63;;;21.60;99.90;;;;;;5016501;28;20828;-76
2022/06/24 07:19:53;;;;;;;14.48;4.00;;;21.70;99.90;;;;;;5017212;28;20407;-76
2022/06/24 07:22:19;;;;;;;8.55;3.80;;;21.90;99.90;;;;;;5016570;28;20041;-76
2022/06/24 07:24:44;;;;;;;9.50;4.10;;;22.20;99.90;;;;;;5016940;28;20041;-76
2022/06/24 07:27:11;;;;;;;10.90;3.60;;;22.60;99.90;;;;;;5017075;28;20052;-76
2022/06/24 07:29:37;;;;;;;10.82;4.05;;;23.00;99.90;;;;;;5015719;28;20045;-76
2022/06/24 07:32:05;;;;;;;7.65;3.30;;;23.10;99.90;;;;;;5016878;28;20042;-76
2022/06/24 07:34:31;;;;;;;9.02;3.38;;;23.10;99.90;;;;;;5016627;28;20134;-76
2022/06/24 07:37:01;;;;;;;9.93;3.63;;;22.70;99.90;;;;;;5015467;28;20038;-76
2022/06/24 07:39:28;;;;;;;7.43;3.60;;;22.30;99.90;;;;;;5016954;28;20034;-76
2022/06/24 07:41:54;;;;;;;7.50;4.22;;;22.20;99.90;;;;;;5016505;28;20038;-76
2022/06/24 07:44:23;;;;;;;7.10;3.03;;;22.40;99.90;;;;;;5015526;28;20034;-76
2022/06/24 07:46:49;;;;;;;9.35;3.40;;;22.50;99.90;;;;;;5016883;28;20038;-76
2022/06/24 07:49:16;;;;;;;10.05;3.50;;;22.60;99.90;;;;;;5016968;28;20034;-77
2022/06/24 07:51:42;;;;;;;5.45;2.72;;;23.00;99.90;;;;;;5017854;28;20038;-77
2022/06/24 07:54:10;;;;;;;8.40;3.42;;;23.30;99.90;;;;;;5018584;28;20046;-76
2022/06/24 07:59:21;;;;;;;7.65;2.90;;;22.90;99.90;;;;;;5018387;28;20109;-75
2022/06/24 08:01:47;;;;;;;8.85;3.05;;;22.50;99.90;;;;;;5017066;28;20543;-75
2022/06/24 08:04:14;;;;;;;10.32;3.55;;;22.40;99.90;;;;;;5015430;28;20484;-75
2022/06/24 08:06:45;;;;;;;5.93;3.03;;;22.50;99.90;;;;;;5017111;28;20061;-76
2022/06/24 08:09:11;;;;;;;9.05;3.20;;;23.00;99.90;;;;;;5017790;28;20466;-76
2022/06/24 08:11:37;;;;;;;6.80;3.08;;;23.20;99.90;;;;;;5016750;28;20046;-76
2022/06/24 08:14:02;;;;;;;9.80;3.00;;;22.90;99.90;;;;;;5015412;28;20085;-75
2022/06/24 08:16:28;;;;;;;6.82;3.30;;;22.90;99.90;;;;;;5016178;28;20066;-75
2022/06/24 08:18:55;;;;;;;7.57;2.72;;;23.00;99.90;;;;;;5016650;28;20126;-76
2022/06/24 08:21:21;;;;;;;7.72;3.00;;;23.20;99.90;;;;;;5017559;28;20037;-76
2022/06/24 08:23:46;;;;;;;3.60;2.55;;;23.70;99.90;;;;;;5017253;28;20038;-76
2022/06/24 08:26:12;;;;;;;5.90;2.38;;;23.70;99.90;;;;;;5018042;28;20038;-76
2022/06/24 08:28:38;;;;;;;5.60;2.25;;;23.50;99.90;;;;;;5018301;28;20436;-76
2022/06/24 08:31:03;;;;;;;7.53;2.20;;;23.90;99.90;;;;;;5016975;28;20066;-76
2022/06/24 08:33:29;;;;;;;7.55;2.25;;;24.20;99.90;;;;;;5016437;28;20530;-76
2022/06/24 08:35:54;;;;;;;9.70;2.60;;;24.00;99.90;;;;;;5016981;28;20034;-75
2022/06/24 08:38:20;;;;;;;6.30;2.50;;;23.50;99.90;;;;;;5018798;28;20400;-76
2022/06/24 08:40:48;;;;;;;7.38;2.88;;;23.50;99.90;;;;;;5014688;28;20546;-75
2022/06/24 08:43:14;;;;;;;8.10;2.70;;;23.70;99.90;;;;;;5015585;28;20076;-75
2022/06/24 08:45:40;;;;;;;6.32;2.50;;;24.00;99.90;;;;;;5015625;28;20034;-75
2022/06/24 08:48:10;;;;;;;5.13;2.55;;;24.30;99.90;;;;;;5015521;28;20038;-75
2022/06/24 08:50:35;;;;;;;6.13;2.60;;;24.50;99.90;;;;;;5015367;28;20719;-75
2022/06/24 08:53:09;;;;;;;5.20;2.22;;;24.40;99.90;;;;;;5015579;28;20041;-75
2022/06/24 08:55:40;;;;;;;5.47;2.38;;;24.50;99.90;;;;;;5015266;28;20026;-75
2022/06/24 08:58:07;;;;;;;7.30;2.83;;;24.30;99.90;;;;;;5014702;28;20042;-75
2022/06/24 09:00:33;;;;;;;6.80;2.47;;;24.00;99.90;;;;;;5014779;28;20647;-75
2022/06/24 09:02:59;;;;;;;5.13;2.67;;;23.80;99.90;;;;;;5015248;28;20047;-75
2022/06/24 09:05:26;;;;;;;7.93;2.60;;;23.40;99.90;;;;;;5015162;28;20046;-75
2022/06/24 09:08:09;;;;;;;5.50;2.40;;;23.20;99.90;;;;;;5015142;28;20042;-75
2022/06/24 09:10:37;;;;;;;5.03;2.60;;;23.20;99.90;;;;;;5013538;28;20030;-75
2022/06/24 09:13:03;;;;;;;4.82;2.40;;;23.60;99.90;;;;;;5015126;28;20046;-75
2022/06/24 09:15:29;;;;;;;6.53;2.55;;;24.10;99.90;;;;;;5014829;28;20030;-75
2022/06/24 09:17:55;;;;;;;5.65;2.30;;;24.30;99.90;;;;;;5014738;28;20038;-75
2022/06/24 09:20:23;;;;;;;4.97;2.30;;;24.70;99.90;;;;;;5015134;28;20603;-75
2022/06/24 09:22:50;;;;;;;6.95;2.05;;;24.50;99.90;;;;;;5014910;28;20066;-75
2022/06/24 09:25:16;;;;;;;5.63;2.00;;;25.10;99.90;;;;;;5014939;28;20034;-75
2022/06/24 09:27:46;;;;;;;4.30;2.00;;;25.20;99.90;;;;;;5014449;28;20401;-75
2022/06/24 09:30:15;;;;;;;4.70;2.05;;;25.40;99.90;;;;;;5014924;28;20041;-75
2022/06/24 09:32:54;;;;;;;7.57;2.30;;;25.60;99.90;;;;;;5014790;28;20125;-75
2022/06/24 09:35:22;;;;;;;4.53;1.98;;;25.90;99.90;;;;;;5014599;28;20117;-75
2022/06/24 09:37:50;;;;;;;5.40;2.30;;;25.90;99.90;;;;;;5014594;28;20492;-75
2022/06/24 09:40:28;;;;;;;6.95;1.80;;;25.90;99.90;;;;;;5013096;28;20523;-75
2022/06/24 09:43:01;;;;;;;3.85;2.00;;;26.00;99.50;;;;;;5014452;28;20090;-75
2022/06/24 09:45:45;;;;;;;5.45;2.08;;;25.90;99.90;;;;;;5014858;28;20026;-75
2022/06/24 09:48:12;;;;;;;3.72;2.00;;;25.60;99.90;;;;;;5014551;28;20041;-75
2022/06/24 09:50:39;;;;;;;6.32;2.22;;;25.70;99.90;;;;;;5014498;28;20085;-75
2022/06/24 09:53:07;;;;;;;4.47;2.22;;;26.70;97.90;;;;;;5014391;28;20042;-76
2022/06/24 09:55:33;;;;;;;4.15;1.48;;;27.10;97.20;;;;;;5014611;28;20470;-76
2022/06/24 09:57:59;;;;;;;5.35;1.55;;;27.30;95.20;;;;;;5014374;28;20038;-75
2022/06/24 10:00:40;;;;;;;4.03;1.40;;;26.50;93.20;;;;;;5014064;28;20085;-75
2022/06/24 10:03:10;;;;;;;1.95;1.33;;;26.00;94.40;;;;;;5014605;28;20039;-75
2022/06/24 10:05:40;;;;;;;5.72;1.80;;;25.60;96.10;;;;;;5014312;28;20061;-75
2022/06/24 10:08:09;;;;;;;4.57;2.17;;;25.10;97.70;;;;;;5014175;28;20055;-75
2022/06/24 10:10:36;;;;;;;3.95;1.70;;;24.90;97.30;;;;;;5016661;28;20089;-75
2022/06/24 10:13:07;;;;;;;3.53;1.42;;;25.00;97.70;;;;;;5016395;28;20046;-75
2022/06/24 10:15:33;;;;;;;2.83;1.50;;;25.90;95.60;;;;;;5032929;23;20054;-75
2022/06/24 10:18:00;;;;;;;6.40;1.88;;;26.40;92.80;;;;;;5016267;28;20117;-76
2022/06/24 10:20:26;;;;;;;7.70;2.00;;;26.40;91.90;;;;;;5018212;28;20034;-77
2022/06/24 10:22:54;;;;;;;4.72;1.60;;;26.60;93.10;;;;;;5017336;28;20050;-77
2022/06/24 10:25:47;;;;;;;3.80;1.52;;;27.10;94.50;;;;;;5018135;28;20085;-77
2022/06/24 10:28:13;;;;;;;2.17;1.52;;;27.30;94.90;;;;;;5016351;28;20158;-76
2022/06/24 10:30:56;;;;;;;3.78;1.50;;;27.60;91.80;;;;;;5016845;28;20041;-77
2022/06/24 10:33:25;;;;;;;2.08;1.38;;;28.20;91.00;;;;;;5018625;28;20039;-76
2022/06/24 10:36:03;;;;;;;2.47;1.20;;;28.70;89.60;;;;;;5018816;28;20058;-77
2022/06/24 10:38:39;;;;;;;3.50;1.40;;;29.30;88.20;;;;;;5018398;28;20767;-77
2022/06/24 10:41:06;;;;;;;3.05;1.30;;;29.40;80.30;;;;;;5018478;28;20030;-76
2022/06/24 10:43:37;;;;;;;3.03;1.38;;;29.20;82.30;;;;;;5018287;28;20050;-76
2022/06/24 10:46:11;;;;;;;4.53;1.30;;;29.50;85.90;;;;;;5017013;28;20030;-77
2022/06/24 10:48:43;;;;;;;2.55;1.50;;;29.00;80.90;;;;;;5018207;28;20038;-77
2022/06/24 10:51:13;;;;;;;3.70;1.58;;;28.60;84.10;;;;;;5019628;28;20033;-76
2022/06/24 10:54:06;;;;;;;3.13;1.40;;;28.50;82.00;;;;;;5016301;28;20404;-76
2022/06/24 10:56:49;;;;;;;3.20;1.90;;;29.00;82.80;;;;;;5017569;28;20488;-76
2022/06/24 10:59:18;;;;;;;4.60;1.40;;;29.80;83.70;;;;;;5016177;28;20037;-77
2022/06/24 11:01:46;;;;;;;2.60;1.48;;;29.50;84.70;;;;;;5018060;28;20166;-76
2022/06/24 11:04:21;;;;;;;3.42;1.48;;;29.40;78.20;;;;;;5017726;28;20038;-77
2022/06/24 11:07:11;;;;;;;3.58;1.42;;;30.20;73.20;;;;;;5016208;28;20458;-76
2022/06/24 11:09:37;;;;;;;2.70;1.33;;;30.30;73.00;;;;;;5018644;28;20035;-77
2022/06/24 11:12:04;;;;;;;4.60;1.13;;;30.50;72.60;;;;;;5018671;28;20500;-77
2022/06/24 11:14:30;;;;;;;3.47;1.67;;;30.50;76.40;;;;;;5017152;28;20038;-77
2022/06/24 11:16:55;;;;;;;1.88;1.40;;;30.80;71.40;;;;;;5017443;28;20391;-76
2022/06/24 11:19:21;;;;;;;3.00;1.40;;;30.60;75.00;;;;;;5017363;28;20514;-75
2022/06/24 11:21:50;;;;;;;2.92;1.20;;;29.40;76.40;;;;;;5016620;28;20134;-76
2022/06/24 11:24:20;;;;;;;3.53;1.30;;;29.60;72.10;;;;;;5016796;28;20732;-76
2022/06/24 11:27:08;;;;;;;4.75;1.13;;;29.40;69.00;;;;;;5016415;28;20385;-76
2022/06/24 11:29:50;;;;;;;3.85;1.20;;;29.30;72.40;;;;;;5016880;28;20042;-76
2022/06/24 11:32:16;;;;;;;2.25;1.23;;;28.80;72.30;;;;;;5016687;28;20043;-76
2022/06/24 11:34:43;;;;;;;3.08;1.30;;;28.30;73.60;;;;;;5016303;28;20034;-76
2022/06/24 11:37:09;;;;;;;2.17;1.60;;;28.10;74.60;;;;;;5016453;28;20105;-76
2022/06/24 11:39:35;;;;;;;2.65;1.33;;;27.70;76.10;;;;;;5016778;28;20026;-76
2022/06/24 11:42:00;;;;;;;3.50;1.50;;;27.60;77.50;;;;;;5016628;28;20035;-76
2022/06/24 11:44:33;;;;;;;3.35;1.50;;;27.20;78.50;;;;;;5016202;28;20130;-76
2022/06/24 11:46:59;;;;;;;2.22;1.60;;;27.00;82.30;;;;;;5016322;28;20038;-76
2022/06/24 11:49:26;;;;;;;3.00;1.42;;;26.80;87.20;;;;;;5016159;28;20041;-76
2022/06/24 11:51:52;;;;;;;3.03;1.52;;;27.40;81.00;;;;;;5016342;28;20097;-76
2022/06/24 11:54:18;;;;;;;3.78;1.63;;;28.40;82.20;;;;;;5016216;28;20432;-76
2022/06/24 11:56:44;;;;;;;2.20;1.38;;;29.20;79.50;;;;;;5016184;28;20034;-76
2022/06/24 11:59:13;;;;;;;3.10;1.65;;;29.60;73.70;;;;;;5016339;28;20044;-76
2022/06/24 12:01:40;;;;;;;1.95;1.40;;;29.40;75.50;;;;;;5016198;28;20109;-76
2022/06/24 12:04:09;;;;;;;3.03;1.70;;;28.60;76.40;;;;;;5016278;28;20500;-76
2022/06/24 12:06:36;;;;;;;3.40;1.60;;;28.90;75.90;;;;;;5015849;28;20042;-76
2022/06/24 12:09:02;;;;;;;2.97;1.60;;;29.80;77.80;;;;;;5016419;28;20031;-76
2022/06/24 12:11:28;;;;;;;1.83;1.40;;;30.00;73.40;;;;;;5016472;28;20038;-76
2022/06/24 12:14:04;;;;;;;2.80;1.50;;;29.40;74.20;;;;;;5016645;28;20507;-76
2022/06/24 12:17:00;;;;;;;1.60;1.50;;;28.50;77.50;;;;;;5015867;28;20066;-76
2022/06/24 12:19:40;;;;;;;2.50;1.48;;;29.00;77.10;;;;;;5016171;28;20035;-76
2022/06/24 12:22:12;;;;;;;2.72;1.35;;;29.70;75.70;;;;;;5016275;28;20030;-76
2022/06/24 12:24:39;;;;;;;4.53;1.40;;;30.20;74.60;;;;;;5015469;28;20035;-76
2022/06/24 12:27:06;;;;;;;2.33;1.33;;;30.40;78.50;;;;;;5014310;28;20045;-76
2022/06/24 12:29:33;;;;;;;2.40;1.42;;;30.70;71.90;;;;;;5015831;28;20102;-75
2022/06/24 12:31:59;;;;;;;1.40;1.30;;;31.00;69.30;;;;;;5013379;28;20723;-76
2022/06/24 12:34:26;;;;;;;3.83;1.70;;;31.30;71.10;;;;;;5015712;28;20038;-76
2022/06/24 12:36:57;;;;;;;1.92;1.20;;;31.60;68.60;;;;;;5015602;28;20089;-76
2022/06/24 12:39:31;;;;;;;1.35;1.20;;;31.90;66.10;;;;;;5015441;28;20026;-76
2022/06/24 12:41:57;;;;;;;2.28;1.10;;;31.80;64.90;;;;;;5015727;28;20058;-75
2022/06/24 12:44:23;;;;;;;4.70;1.52;;;32.30;67.50;;;;;;5014067;28;20061;-76
2022/06/24 12:52:45;;;;;;;1.80;1.33;;;31.00;67.00;;;;;;5014227;28;20042;-76
2022/06/24 12:55:16;;;;;;;1.65;1.35;;;30.30;77.70;;;;;;5015527;28;20047;-74
2022/06/24 12:57:42;;;;;;;3.10;1.17;;;30.90;69.50;;;;;;5015626;28;20105;-76
2022/06/24 13:00:11;;;;;;;1.63;1.20;;;31.70;73.50;;;;;;5013968;28;20031;-73
2022/06/24 13:02:45;;;;;;;3.78;1.25;;;31.90;67.30;;;;;;5013035;28;20096;-72
2022/06/24 13:05:11;;;;;;;5.05;1.10;;;31.90;66.30;;;;;;5015017;28;20097;-73
2022/06/24 13:07:37;;;;;;;1.40;1.10;;;32.20;63.70;;;;;;5015078;28;20089;-72
2022/06/24 13:10:04;;;;;;;3.28;1.60;;;32.90;64.50;;;;;;5028065;28;20030;-73
2022/06/24 13:12:30;;;;;;;4.68;1.50;;;32.70;66.30;;;;;;5034926;28;20038;-74
2022/06/24 13:14:55;;;;;;;1.95;1.33;;;32.50;69.40;;;;;;5034315;28;20045;-72
2022/06/24 13:17:21;;;;;;;2.03;1.35;;;32.50;63.70;;;;;;5034673;28;20041;-72
2022/06/24 13:19:47;;;;;;;2.58;1.20;;;32.90;59.80;;;;;;5034963;28;20612;-74
2022/06/24 13:22:13;;;;;;;3.03;1.17;;;33.70;59.90;;;;;;5035111;28;20129;-73
2022/06/24 13:24:38;;;;;;;1.95;1.30;;;35.10;56.90;;;;;;5034500;28;20108;-73
2022/06/24 13:27:05;;;;;;;2.03;1.30;;;35.20;57.40;;;;;;5034482;28;20487;-74
2022/06/24 13:29:31;;;;;;;2.63;1.40;;;34.50;57.20;;;;;;5035080;28;20088;-76
2022/06/24 13:31:56;;;;;;;5.20;1.30;;;33.30;58.40;;;;;;5033105;28;20096;-74
2022/06/24 13:34:22;;;;;;;2.40;1.13;;;32.40;62.40;;;;;;5034745;28;20042;-75
2022/06/24 13:36:47;;;;;;;2.10;1.40;;;31.50;63.40;;;;;;5034503;28;20057;-75
2022/06/24 13:39:13;;;;;;;2.58;1.17;;;31.10;67.50;;;;;;5034679;28;20030;-73
2022/06/24 13:41:39;;;;;;;2.50;1.13;;;30.90;64.20;;;;;;5034651;28;20045;-73
2022/06/24 13:44:04;;;;;;;4.00;1.20;;;30.70;66.00;;;;;;5034126;28;20118;-76
2022/06/24 13:46:30;;;;;;;1.77;1.10;;;31.40;66.60;;;;;;5034398;28;20061;-73
2022/06/24 13:48:57;;;;;;;3.10;1.23;;;33.10;58.10;;;;;;5034645;28;20058;-73
2022/06/24 13:51:23;;;;;;;1.10;1.00;;;34.50;55.60;;;;;;5033155;28;20496;-73
2022/06/24 13:53:49;;;;;;;2.08;1.10;;;35.50;57.60;;;;;;5034660;28;20034;-77
2022/06/24 13:56:15;;;;;;;1.70;1.08;;;36.90;53.40;;;;;;5033947;28;20383;-74
2022/06/24 13:58:41;;;;;;;1.55;0.98;;;37.70;53.00;;;;;;5034546;28;20533;-73
2022/06/24 14:01:07;;;;;;;1.73;1.10;;;36.80;50.70;;;;;;5034619;28;20038;-73
2022/06/24 14:03:33;;;;;;;2.00;1.00;;;35.70;53.90;;;;;;5034493;28;20049;-74
2022/06/24 14:05:59;;;;;;;2.45;1.17;;;35.40;52.90;;;;;;5033782;28;20034;-73
2022/06/24 14:08:25;;;;;;;2.78;1.10;;;35.70;54.70;;;;;;5032662;28;20606;-74
2022/06/24 14:10:51;;;;;;;1.25;1.13;;;36.40;51.20;;;;;;5034028;28;20042;-77
2022/06/24 14:13:17;;;;;;;1.45;1.00;;;35.90;53.40;;;;;;5034296;28;20042;-73
2022/06/24 14:15:42;;;;;;;2.08;1.10;;;35.00;53.90;;;;;;5033072;28;20450;-74
2022/06/24 14:18:08;;;;;;;2.13;1.05;;;33.80;53.80;;;;;;5034041;28;20048;-74
2022/06/24 14:20:33;;;;;;;2.20;0.93;;;32.90;59.40;;;;;;5034239;28;20042;-74
2022/06/24 14:25:43;;;;;;;1.55;1.30;;;31.20;58.40;;;;;;5034708;28;20046;-76
2022/06/24 14:28:09;;;;;;;2.58;1.08;;;30.60;63.40;;;;;;5033849;28;20034;-73
2022/06/24 14:30:34;;;;;;;1.17;1.08;;;30.20;61.20;;;;;;5032547;28;20061;-75
2022/06/24 14:33:00;;;;;;;1.10;0.98;;;29.30;64.60;;;;;;5032597;28;20042;-74
2022/06/24 14:35:26;;;;;;;3.47;1.10;;;28.80;66.00;;;;;;5032229;28;20029;-74
2022/06/24 14:40:35;;;;;;;2.20;1.13;;;28.40;71.30;;;;;;5034105;28;20034;-74
2022/06/24 14:43:02;;;;;;;1.50;1.13;;;28.30;71.00;;;;;;5033669;28;20495;-74
2022/06/24 14:45:28;;;;;;;3.45;1.20;;;28.20;69.30;;;;;;5033911;28;20034;-74
2022/06/24 14:47:54;;;;;;;1.98;1.10;;;28.10;71.80;;;;;;5033562;28;20467;-74
2022/06/24 14:50:19;;;;;;;4.07;1.30;;;28.20;71.00;;;;;;5033589;28;20045;-74
2022/06/24 14:52:45;;;;;;;2.05;1.20;;;28.00;73.30;;;;;;5033762;28;20420;-74
2022/06/24 14:55:10;;;;;;;3.50;1.17;;;28.00;71.80;;;;;;5033742;28;20519;-74
2022/06/24 14:57:36;;;;;;;2.17;1.10;;;27.60;70.70;;;;;;5035407;28;20541;-73
2022/06/24 15:00:03;;;;;;;1.85;1.25;;;27.40;77.30;;;;;;5037132;28;20089;-74
2022/06/24 15:02:29;;;;;;;2.47;1.15;;;27.30;75.10;;;;;;5035784;28;20044;-73
2022/06/24 15:04:54;;;;;;;2.88;1.27;;;26.90;77.40;;;;;;5036480;28;20395;-73
2022/06/24 15:07:20;;;;;;;2.13;1.35;;;26.70;78.00;;;;;;5037179;28;20041;-73
2022/06/24 15:09:45;;;;;;;1.98;1.20;;;26.40;78.50;;;;;;5037133;28;20030;-74
2022/06/24 15:12:12;;;;;;;5.07;1.58;;;26.20;78.90;;;;;;5036983;28;20045;-73
2022/06/24 15:14:37;;;;;;;2.67;1.15;;;26.10;84.20;;;;;;5036126;28;20038;-72
2022/06/24 15:17:03;;;;;;;2.95;1.20;;;25.80;81.40;;;;;;5035000;28;20408;-73
2022/06/24 15:19:29;;;;;;;1.77;1.40;;;25.80;81.40;;;;;;5036714;28;20030;-73
2022/06/24 15:21:54;;;;;;;4.07;1.60;;;25.50;82.10;;;;;;5037431;28;20089;-73
2022/06/24 15:24:20;;;;;;;2.00;1.48;;;25.30;84.40;;;;;;5036188;28;20026;-72
2022/06/24 15:26:45;;;;;;;4.18;1.80;;;24.90;86.10;;;;;;5036574;28;20391;-73
2022/06/24 15:29:11;;;;;;;3.75;1.60;;;24.60;88.70;;;;;;5037073;28;20073;-72
2022/06/24 15:31:37;;;;;;;3.13;1.60;;;24.30;90.10;;;;;;5036448;28;20109;-73
2022/06/24 15:34:02;;;;;;;3.78;1.60;;;24.20;90.40;;;;;;5034876;28;20459;-73
2022/06/24 15:36:28;;;;;;;4.53;1.58;;;24.10;90.90;;;;;;5036257;28;20041;-73
2022/06/24 15:38:53;;;;;;;3.55;1.80;;;23.90;91.60;;;;;;5036459;28;20022;-73
2022/06/24 15:41:19;;;;;;;3.78;1.80;;;23.60;92.30;;;;;;5036455;28;20034;-76
2022/06/24 15:43:45;;;;;;;5.22;1.70;;;23.30;93.50;;;;;;5036486;28;20523;-76
2022/06/24 15:46:10;;;;;;;3.75;1.98;;;23.10;94.40;;;;;;5024574;28;20081;-72
2022/06/24 15:48:37;;;;;;;5.18;1.58;;;22.90;95.10;;;;;;5014802;28;20035;-72
2022/06/24 15:51:04;;;;;;;6.03;1.77;;;22.70;95.60;;;;;;5028827;28;20041;-81
2022/06/24 15:53:30;;;;;;;4.10;1.50;;;22.50;96.00;;;;;;5019905;28;20038;-74
2022/06/24 15:55:55;;;;;;;8.18;1.52;;;22.30;96.50;;;;;;5015449;28;20034;-74
2022/06/24 15:58:21;;;;;;;4.50;1.60;;;22.00;98.70;;;;;;5014779;28;20050;-72
2022/06/24 16:00:48;;;;;;;3.17;1.27;;;21.90;99.90;;;;;;5013710;28;20081;-73
2022/06/24 16:03:14;;;;;;;1.80;1.27;;;21.70;99.90;;;;;;5016036;28;20081;-71
2022/06/24 16:05:39;;;;;;;5.82;1.60;;;21.50;99.90;;;;;;5013904;28;20128;-73
2022/06/24 16:08:05;;;;;;;2.55;1.50;;;21.30;99.90;;;;;;5010835;28;20137;-70
2022/06/24 16:10:30;;;;;;;1.83;1.20;;;21.00;99.90;;;;;;5012575;28;20023;-72
2022/06/24 16:12:56;;;;;;;3.78;1.27;;;20.60;99.90;;;;;;5017620;28;20121;-72
2022/06/24 16:15:21;;;;;;;2.63;1.30;;;20.10;99.90;;;;;;5034152;28;20045;-70
2022/06/24 16:17:47;;;;;;;3.53;1.40;;;19.80;99.90;;;;;;5035338;28;20041;-72
2022/06/24 16:20:12;;;;;;;2.08;1.20;;;19.40;99.90;;;;;;5034529;28;20038;-71
2022/06/24 16:22:39;;;;;;;4.13;1.45;;;19.20;99.90;;;;;;5034530;28;20112;-76
2022/06/24 16:30:35;;;;;;;1.63;1.30;;;18.80;99.90;;;;;;4996240;28;20488;-72
2022/06/24 16:33:01;;;;;;;3.00;1.50;;;18.80;99.90;;;;;;4999664;28;20055;-72
2022/06/24 16:35:27;;;;;;;3.33;2.00;;;18.70;99.90;;;;;;5035384;28;20041;-74
2022/06/24 16:37:52;;;;;;;33.85;22.65;;;18.70;99.90;;;;;;5035800;28;20042;-73
2022/06/24 16:40:18;;;;;;;38.88;26.67;;;18.70;99.90;;;;;;5035493;28;20045;-72
2022/06/24 16:43:15;;;;;;;15.90;10.90;;;18.70;99.90;;;;;;5035644;28;20045;-73
2022/06/24 16:45:29;;;;;;;9.70;7.25;;;18.70;99.90;;;;;;5034021;28;20113;-73
2022/06/24 16:47:55;;;;;;;7.10;5.22;;;18.70;99.90;;;;;;5035273;28;20062;-72
2022/06/24 16:50:21;;;;;;;10.07;7.20;;;18.60;99.90;;;;;;5035496;28;20080;-72
2022/06/24 16:52:47;;;;;;;11.20;9.45;;;18.60;99.90;;;;;;5034966;28;20045;-72
2022/06/24 16:55:13;;;;;;;3.35;1.70;;;18.80;99.90;;;;;;5035301;28;20030;-73
2022/06/24 16:57:39;;;;;;;2.70;2.17;;;18.90;99.90;;;;;;5034939;28;20471;-72
2022/06/24 17:00:05;;;;;;;4.85;3.47;;;19.10;99.90;;;;;;5035145;28;20037;-72
2022/06/24 17:02:30;;;;;;;75.45;59.35;;;19.20;99.90;;;;;;5035352;28;20037;-72
2022/06/24 17:04:56;;;;;;;3.72;1.67;;;19.20;99.90;;;;;;5034949;28;20045;-72
2022/06/24 17:07:21;;;;;;;2.40;1.50;;;19.30;99.90;;;;;;5034976;28;20450;-72
2022/06/24 17:09:47;;;;;;;2.17;1.60;;;19.40;99.90;;;;;;5035168;28;20065;-71